sensor_id;sensor_type;location;lat;lon;timestamp;pressure;altitude;pressure_sealevel;temperature;humidity
80693;BME280;70055;39.436;-77.514;2023-11-19T00:01:57;99166.26;;;6.02;33.40
80693;BME280;70055;39.436;-77.514;2023-11-19T00:04:25;99169.34;;;5.78;33.86
80693;BME280;70055;39.436;-77.514;2023-11-19T00:06:53;99169.73;;;6.21;34.05
80693;BME280;70055;39.436;-77.514;2023-11-19T00:09:21;99176.01;;;5.09;35.24
80693;BME280;70055;39.436;-77.514;2023-11-19T00:11:49;99181.77;;;5.11;35.47
80693;BME280;70055;39.436;-77.514;2023-11-19T00:14:17;99180.30;;;6.78;32.90
80693;BME280;70055;39.436;-77.514;2023-11-19T00:16:46;99185.25;;;5.17;35.40
80693;BME280;70055;39.436;-77.514;2023-11-19T00:19:14;99181.14;;;5.85;33.92
80693;BME280;70055;39.436;-77.514;2023-11-19T00:21:43;99177.50;;;6.57;32.92
80693;BME280;70055;39.436;-77.514;2023-11-19T00:24:11;99180.83;;;4.97;35.09
80693;BME280;70055;39.436;-77.514;2023-11-19T00:26:38;99182.86;;;6.49;33.32
80693;BME280;70055;39.436;-77.514;2023-11-19T00:29:06;99189.24;;;5.32;35.10
80693;BME280;70055;39.436;-77.514;2023-11-19T00:31:34;99185.99;;;6.39;33.22
80693;BME280;70055;39.436;-77.514;2023-11-19T00:34:02;99186.54;;;6.29;33.36
80693;BME280;70055;39.436;-77.514;2023-11-19T00:36:29;99187.83;;;6.35;32.87
80693;BME280;70055;39.436;-77.514;2023-11-19T00:38:58;99191.24;;;5.66;33.44
80693;BME280;70055;39.436;-77.514;2023-11-19T00:41:26;99189.56;;;6.38;33.03
80693;BME280;70055;39.436;-77.514;2023-11-19T00:43:54;99191.16;;;4.81;34.22
80693;BME280;70055;39.436;-77.514;2023-11-19T00:46:21;99190.16;;;5.94;33.43
80693;BME280;70055;39.436;-77.514;2023-11-19T00:48:50;99195.57;;;4.39;35.78
80693;BME280;70055;39.436;-77.514;2023-11-19T00:51:18;99195.32;;;5.07;35.39
80693;BME280;70055;39.436;-77.514;2023-11-19T00:53:46;99195.45;;;5.81;34.66
80693;BME280;70055;39.436;-77.514;2023-11-19T00:56:15;99194.48;;;5.68;34.42
80693;BME280;70055;39.436;-77.514;2023-11-19T00:58:43;99202.07;;;3.50;38.48
80693;BME280;70055;39.436;-77.514;2023-11-19T01:01:12;99207.95;;;2.62;39.73
80693;BME280;70055;39.436;-77.514;2023-11-19T01:03:41;99208.60;;;2.55;40.23
80693;BME280;70055;39.436;-77.514;2023-11-19T01:06:09;99213.82;;;1.71;42.42
80693;BME280;70055;39.436;-77.514;2023-11-19T01:08:38;99217.52;;;1.25;43.11
80693;BME280;70055;39.436;-77.514;2023-11-19T01:11:07;99216.98;;;0.70;44.25
80693;BME280;70055;39.436;-77.514;2023-11-19T01:13:35;99221.94;;;0.49;46.03
80693;BME280;70055;39.436;-77.514;2023-11-19T01:16:03;99219.60;;;0.72;46.51
80693;BME280;70055;39.436;-77.514;2023-11-19T01:18:32;99218.73;;;0.76;48.09
80693;BME280;70055;39.436;-77.514;2023-11-19T01:21:01;99213.44;;;0.91;46.93
80693;BME280;70055;39.436;-77.514;2023-11-19T01:23:29;99209.65;;;0.97;47.57
80693;BME280;70055;39.436;-77.514;2023-11-19T01:25:57;99207.09;;;0.88;47.72
80693;BME280;70055;39.436;-77.514;2023-11-19T01:28:25;99205.01;;;0.48;48.41
80693;BME280;70055;39.436;-77.514;2023-11-19T01:30:53;99204.78;;;0.81;48.22
80693;BME280;70055;39.436;-77.514;2023-11-19T01:33:22;99201.34;;;1.13;49.39
80693;BME280;70055;39.436;-77.514;2023-11-19T01:35:50;99196.71;;;0.86;48.51
80693;BME280;70055;39.436;-77.514;2023-11-19T01:38:18;99189.40;;;0.88;48.85
80693;BME280;70055;39.436;-77.514;2023-11-19T01:40:47;99193.63;;;1.42;47.64
80693;BME280;70055;39.436;-77.514;2023-11-19T01:43:34;99195.60;;;1.57;47.10
80693;BME280;70055;39.436;-77.514;2023-11-19T01:46:03;99198.69;;;1.19;46.95
80693;BME280;70055;39.436;-77.514;2023-11-19T01:48:32;99201.10;;;2.25;45.36
80693;BME280;70055;39.436;-77.514;2023-11-19T01:51:01;99205.77;;;2.02;45.48
80693;BME280;70055;39.436;-77.514;2023-11-19T01:53:31;99209.08;;;1.35;46.67
80693;BME280;70055;39.436;-77.514;2023-11-19T01:56:01;99211.34;;;2.11;45.67
80693;BME280;70055;39.436;-77.514;2023-11-19T01:58:29;99214.42;;;1.39;46.43
80693;BME280;70055;39.436;-77.514;2023-11-19T02:00:58;99215.33;;;1.51;46.20
80693;BME280;70055;39.436;-77.514;2023-11-19T02:03:27;99221.19;;;2.12;43.54
80693;BME280;70055;39.436;-77.514;2023-11-19T02:05:56;99219.68;;;2.52;43.06
80693;BME280;70055;39.436;-77.514;2023-11-19T02:08:25;99218.23;;;2.34;42.10
80693;BME280;70055;39.436;-77.514;2023-11-19T02:10:53;99216.65;;;2.31;42.90
80693;BME280;70055;39.436;-77.514;2023-11-19T02:13:21;99221.02;;;0.68;46.42
80693;BME280;70055;39.436;-77.514;2023-11-19T02:15:49;99216.17;;;0.98;45.99
80693;BME280;70055;39.436;-77.514;2023-11-19T02:18:19;99217.43;;;0.55;48.45
80693;BME280;70055;39.436;-77.514;2023-11-19T02:20:49;99218.99;;;0.74;47.88
80693;BME280;70055;39.436;-77.514;2023-11-19T02:23:18;99218.61;;;1.43;46.21
80693;BME280;70055;39.436;-77.514;2023-11-19T02:25:55;99215.49;;;1.53;45.19
80693;BME280;70055;39.436;-77.514;2023-11-19T02:28:25;99218.73;;;1.73;44.90
80693;BME280;70055;39.436;-77.514;2023-11-19T02:30:54;99218.10;;;1.39;45.84
80693;BME280;70055;39.436;-77.514;2023-11-19T02:33:22;99215.99;;;2.25;43.56
80693;BME280;70055;39.436;-77.514;2023-11-19T02:35:50;99221.79;;;1.50;44.95
80693;BME280;70055;39.436;-77.514;2023-11-19T02:38:18;99220.24;;;1.28;46.19
80693;BME280;70055;39.436;-77.514;2023-11-19T02:40:46;99218.57;;;0.74;47.11
80693;BME280;70055;39.436;-77.514;2023-11-19T02:43:14;99217.70;;;0.65;47.47
80693;BME280;70055;39.436;-77.514;2023-11-19T02:45:42;99217.16;;;0.64;47.68
80693;BME280;70055;39.436;-77.514;2023-11-19T02:48:10;99210.38;;;0.81;47.83
80693;BME280;70055;39.436;-77.514;2023-11-19T02:50:39;99207.37;;;0.74;47.62
80693;BME280;70055;39.436;-77.514;2023-11-19T02:53:07;99206.97;;;0.53;48.35
80693;BME280;70055;39.436;-77.514;2023-11-19T02:55:36;99207.67;;;0.57;49.03
80693;BME280;70055;39.436;-77.514;2023-11-19T02:58:04;99207.22;;;0.78;48.33
80693;BME280;70055;39.436;-77.514;2023-11-19T03:00:32;99208.34;;;1.24;47.70
80693;BME280;70055;39.436;-77.514;2023-11-19T03:03:00;99203.57;;;1.53;46.30
80693;BME280;70055;39.436;-77.514;2023-11-19T03:05:28;99207.70;;;1.17;47.56
80693;BME280;70055;39.436;-77.514;2023-11-19T03:07:57;99211.20;;;1.80;45.31
80693;BME280;70055;39.436;-77.514;2023-11-19T03:10:25;99211.90;;;1.66;44.83
80693;BME280;70055;39.436;-77.514;2023-11-19T03:12:54;99214.34;;;1.94;45.07
80693;BME280;70055;39.436;-77.514;2023-11-19T03:15:23;99212.38;;;2.30;43.42
80693;BME280;70055;39.436;-77.514;2023-11-19T03:17:51;99216.08;;;2.51;43.13
80693;BME280;70055;39.436;-77.514;2023-11-19T03:20:20;99217.49;;;3.49;40.85
80693;BME280;70055;39.436;-77.514;2023-11-19T03:22:47;99224.53;;;1.73;44.24
80693;BME280;70055;39.436;-77.514;2023-11-19T03:25:15;99221.01;;;3.74;41.01
80693;BME280;70055;39.436;-77.514;2023-11-19T03:27:43;99225.54;;;4.10;40.07
80693;BME280;70055;39.436;-77.514;2023-11-19T03:30:11;99221.53;;;4.35;38.59
80693;BME280;70055;39.436;-77.514;2023-11-19T03:32:39;99218.26;;;5.62;36.31
80693;BME280;70055;39.436;-77.514;2023-11-19T03:35:07;99220.93;;;5.59;35.68
80693;BME280;70055;39.436;-77.514;2023-11-19T03:37:36;99221.37;;;5.49;35.87
80693;BME280;70055;39.436;-77.514;2023-11-19T03:40:04;99217.58;;;6.13;34.45
80693;BME280;70055;39.436;-77.514;2023-11-19T03:42:34;99211.93;;;6.00;34.57
80693;BME280;70055;39.436;-77.514;2023-11-19T03:45:03;99208.69;;;6.36;34.44
80693;BME280;70055;39.436;-77.514;2023-11-19T03:47:31;99205.13;;;6.28;34.36
80693;BME280;70055;39.436;-77.514;2023-11-19T03:49:59;99204.75;;;5.83;35.14
80693;BME280;70055;39.436;-77.514;2023-11-19T03:52:27;99204.16;;;6.09;35.25
80693;BME280;70055;39.436;-77.514;2023-11-19T03:54:55;99202.03;;;5.94;35.31
80693;BME280;70055;39.436;-77.514;2023-11-19T03:57:24;99207.38;;;4.29;38.18
80693;BME280;70055;39.436;-77.514;2023-11-19T03:59:52;99207.55;;;4.58;38.22
80693;BME280;70055;39.436;-77.514;2023-11-19T04:02:20;99214.30;;;2.82;42.36
80693;BME280;70055;39.436;-77.514;2023-11-19T04:04:49;99215.49;;;0.64;47.27
80693;BME280;70055;39.436;-77.514;2023-11-19T04:07:17;99218.91;;;0.05;49.58
80693;BME280;70055;39.436;-77.514;2023-11-19T04:09:45;99219.88;;;0.33;49.61
80693;BME280;70055;39.436;-77.514;2023-11-19T04:12:13;99213.99;;;1.25;48.06
80693;BME280;70055;39.436;-77.514;2023-11-19T04:14:42;99216.84;;;1.23;47.53
80693;BME280;70055;39.436;-77.514;2023-11-19T04:17:09;99219.59;;;0.83;48.42
80693;BME280;70055;39.436;-77.514;2023-11-19T04:19:37;99216.06;;;1.61;46.80
80693;BME280;70055;39.436;-77.514;2023-11-19T04:22:06;99215.12;;;2.05;45.33
80693;BME280;70055;39.436;-77.514;2023-11-19T04:24:33;99213.31;;;3.42;41.80
80693;BME280;70055;39.436;-77.514;2023-11-19T04:27:01;99217.45;;;0.88;47.42
80693;BME280;70055;39.436;-77.514;2023-11-19T04:29:30;99214.24;;;1.37;46.39
80693;BME280;70055;39.436;-77.514;2023-11-19T04:31:58;99214.40;;;1.85;45.09
80693;BME280;70055;39.436;-77.514;2023-11-19T04:34:26;99217.56;;;2.03;45.75
80693;BME280;70055;39.436;-77.514;2023-11-19T04:36:54;99211.00;;;2.29;44.79
80693;BME280;70055;39.436;-77.514;2023-11-19T04:39:22;99209.15;;;3.26;43.22
80693;BME280;70055;39.436;-77.514;2023-11-19T04:41:52;99212.67;;;2.69;44.64
80693;BME280;70055;39.436;-77.514;2023-11-19T04:44:20;99209.66;;;2.86;43.37
80693;BME280;70055;39.436;-77.514;2023-11-19T04:46:48;99211.75;;;3.14;42.45
80693;BME280;70055;39.436;-77.514;2023-11-19T04:49:16;99214.99;;;1.87;44.49
80693;BME280;70055;39.436;-77.514;2023-11-19T04:51:44;99217.14;;;1.77;46.28
80693;BME280;70055;39.436;-77.514;2023-11-19T04:54:13;99216.00;;;1.12;47.42
80693;BME280;70055;39.436;-77.514;2023-11-19T04:56:45;99210.48;;;2.46;45.01
80693;BME280;70055;39.436;-77.514;2023-11-19T04:59:14;99215.84;;;1.73;45.92
80693;BME280;70055;39.436;-77.514;2023-11-19T05:01:46;99217.28;;;0.87;47.47
80693;BME280;70055;39.436;-77.514;2023-11-19T05:04:14;99221.92;;;0.67;48.69
80693;BME280;70055;39.436;-77.514;2023-11-19T05:06:42;99217.98;;;2.69;43.97
80693;BME280;70055;39.436;-77.514;2023-11-19T05:09:10;99221.62;;;2.85;43.67
80693;BME280;70055;39.436;-77.514;2023-11-19T05:11:37;99226.86;;;1.10;47.15
80693;BME280;70055;39.436;-77.514;2023-11-19T05:14:05;99225.36;;;1.20;47.29
80693;BME280;70055;39.436;-77.514;2023-11-19T05:16:34;99231.10;;;2.28;46.06
80693;BME280;70055;39.436;-77.514;2023-11-19T05:19:02;99234.39;;;0.45;49.59
80693;BME280;70055;39.436;-77.514;2023-11-19T05:21:31;99237.16;;;0.09;50.54
80693;BME280;70055;39.436;-77.514;2023-11-19T05:23:59;99234.47;;;0.85;49.64
80693;BME280;70055;39.436;-77.514;2023-11-19T05:26:27;99235.45;;;0.09;51.50
80693;BME280;70055;39.436;-77.514;2023-11-19T05:28:55;99238.57;;;0.49;49.32
80693;BME280;70055;39.436;-77.514;2023-11-19T05:31:24;99248.56;;;0.18;50.23
80693;BME280;70055;39.436;-77.514;2023-11-19T05:33:52;99250.90;;;0.59;49.75
80693;BME280;70055;39.436;-77.514;2023-11-19T05:36:21;99244.13;;;1.26;48.49
80693;BME280;70055;39.436;-77.514;2023-11-19T05:38:49;99242.60;;;3.40;43.57
80693;BME280;70055;39.436;-77.514;2023-11-19T05:41:17;99243.25;;;4.24;40.83
80693;BME280;70055;39.436;-77.514;2023-11-19T05:43:45;99239.88;;;4.15;40.18
80693;BME280;70055;39.436;-77.514;2023-11-19T05:46:13;99241.77;;;4.28;39.44
80693;BME280;70055;39.436;-77.514;2023-11-19T05:48:40;99243.03;;;5.63;37.60
80693;BME280;70055;39.436;-77.514;2023-11-19T05:51:08;99244.75;;;5.49;37.30
80693;BME280;70055;39.436;-77.514;2023-11-19T05:53:35;99252.78;;;4.84;37.97
80693;BME280;70055;39.436;-77.514;2023-11-19T05:56:03;99256.10;;;4.71;37.62
80693;BME280;70055;39.436;-77.514;2023-11-19T05:58:31;99257.08;;;5.30;37.01
80693;BME280;70055;39.436;-77.514;2023-11-19T06:01:00;99262.19;;;4.59;37.77
80693;BME280;70055;39.436;-77.514;2023-11-19T06:03:28;99263.69;;;4.59;37.89
80693;BME280;70055;39.436;-77.514;2023-11-19T06:05:56;99263.36;;;4.30;38.31
80693;BME280;70055;39.436;-77.514;2023-11-19T06:08:23;99264.55;;;4.48;38.27
80693;BME280;70055;39.436;-77.514;2023-11-19T06:10:51;99263.72;;;4.50;37.75
80693;BME280;70055;39.436;-77.514;2023-11-19T06:13:19;99269.69;;;3.93;38.70
80693;BME280;70055;39.436;-77.514;2023-11-19T06:15:47;99275.89;;;4.20;38.89
80693;BME280;70055;39.436;-77.514;2023-11-19T06:18:16;99274.89;;;3.97;38.95
80693;BME280;70055;39.436;-77.514;2023-11-19T06:20:44;99276.68;;;3.88;39.11
80693;BME280;70055;39.436;-77.514;2023-11-19T06:23:12;99273.41;;;4.52;38.49
80693;BME280;70055;39.436;-77.514;2023-11-19T06:25:39;99273.53;;;4.19;38.73
80693;BME280;70055;39.436;-77.514;2023-11-19T06:28:07;99272.69;;;4.92;38.11
80693;BME280;70055;39.436;-77.514;2023-11-19T06:30:34;99277.62;;;4.10;39.10
80693;BME280;70055;39.436;-77.514;2023-11-19T06:33:02;99278.37;;;4.03;39.38
80693;BME280;70055;39.436;-77.514;2023-11-19T06:35:31;99279.91;;;3.87;39.43
80693;BME280;70055;39.436;-77.514;2023-11-19T06:37:59;99281.95;;;4.22;38.85
80693;BME280;70055;39.436;-77.514;2023-11-19T06:40:27;99285.54;;;3.54;39.95
80693;BME280;70055;39.436;-77.514;2023-11-19T06:42:54;99286.72;;;3.29;39.43
80693;BME280;70055;39.436;-77.514;2023-11-19T06:45:23;99285.37;;;4.49;38.66
80693;BME280;70055;39.436;-77.514;2023-11-19T06:47:51;99283.50;;;5.09;38.33
80693;BME280;70055;39.436;-77.514;2023-11-19T06:50:20;99292.76;;;4.24;39.01
80693;BME280;70055;39.436;-77.514;2023-11-19T06:52:48;99296.09;;;4.02;39.62
80693;BME280;70055;39.436;-77.514;2023-11-19T06:55:16;99298.78;;;4.23;38.99
80693;BME280;70055;39.436;-77.514;2023-11-19T06:57:44;99301.11;;;4.31;38.86
80693;BME280;70055;39.436;-77.514;2023-11-19T07:00:12;99303.89;;;4.39;38.91
80693;BME280;70055;39.436;-77.514;2023-11-19T07:02:40;99305.39;;;4.05;39.29
80693;BME280;70055;39.436;-77.514;2023-11-19T07:05:08;99310.43;;;4.64;38.48
80693;BME280;70055;39.436;-77.514;2023-11-19T07:07:37;99310.91;;;4.37;38.75
80693;BME280;70055;39.436;-77.514;2023-11-19T07:10:06;99316.91;;;2.12;43.24
80693;BME280;70055;39.436;-77.514;2023-11-19T07:12:35;99315.18;;;2.27;43.23
80693;BME280;70055;39.436;-77.514;2023-11-19T07:15:03;99317.07;;;3.59;41.11
80693;BME280;70055;39.436;-77.514;2023-11-19T07:17:31;99318.16;;;3.02;41.56
80693;BME280;70055;39.436;-77.514;2023-11-19T07:20:00;99319.30;;;3.87;39.82
80693;BME280;70055;39.436;-77.514;2023-11-19T07:22:27;99322.22;;;4.55;38.78
80693;BME280;70055;39.436;-77.514;2023-11-19T07:24:55;99323.16;;;4.16;38.98
80693;BME280;70055;39.436;-77.514;2023-11-19T07:27:23;99319.51;;;4.18;38.97
80693;BME280;70055;39.436;-77.514;2023-11-19T07:29:50;99321.11;;;4.49;38.67
80693;BME280;70055;39.436;-77.514;2023-11-19T07:32:18;99321.19;;;4.19;39.03
80693;BME280;70055;39.436;-77.514;2023-11-19T07:34:45;99319.88;;;4.11;38.93
80693;BME280;70055;39.436;-77.514;2023-11-19T07:37:13;99314.26;;;4.91;38.01
80693;BME280;70055;39.436;-77.514;2023-11-19T07:39:41;99320.60;;;3.62;39.77
80693;BME280;70055;39.436;-77.514;2023-11-19T07:42:09;99320.07;;;3.74;39.69
80693;BME280;70055;39.436;-77.514;2023-11-19T07:44:38;99318.76;;;4.12;38.88
80693;BME280;70055;39.436;-77.514;2023-11-19T07:47:06;99319.80;;;3.65;39.71
80693;BME280;70055;39.436;-77.514;2023-11-19T07:49:34;99316.86;;;3.03;40.47
80693;BME280;70055;39.436;-77.514;2023-11-19T07:52:01;99320.15;;;2.78;41.95
80693;BME280;70055;39.436;-77.514;2023-11-19T07:54:29;99319.42;;;2.97;41.81
80693;BME280;70055;39.436;-77.514;2023-11-19T07:56:57;99314.75;;;3.50;41.25
80693;BME280;70055;39.436;-77.514;2023-11-19T07:59:25;99316.33;;;3.52;40.73
80693;BME280;70055;39.436;-77.514;2023-11-19T08:01:53;99320.85;;;2.97;41.47
80693;BME280;70055;39.436;-77.514;2023-11-19T08:04:20;99317.39;;;2.66;41.81
80693;BME280;70055;39.436;-77.514;2023-11-19T08:06:48;99316.47;;;3.63;40.60
80693;BME280;70055;39.436;-77.514;2023-11-19T08:09:16;99318.41;;;3.19;40.84
80693;BME280;70055;39.436;-77.514;2023-11-19T08:11:43;99315.22;;;3.44;40.81
80693;BME280;70055;39.436;-77.514;2023-11-19T08:14:11;99316.81;;;2.91;42.00
80693;BME280;70055;39.436;-77.514;2023-11-19T08:16:40;99315.13;;;3.24;41.38
80693;BME280;70055;39.436;-77.514;2023-11-19T08:19:08;99315.04;;;3.02;41.82
80693;BME280;70055;39.436;-77.514;2023-11-19T08:21:36;99314.71;;;3.52;41.11
80693;BME280;70055;39.436;-77.514;2023-11-19T08:24:04;99314.33;;;3.34;41.27
80693;BME280;70055;39.436;-77.514;2023-11-19T08:26:32;99318.00;;;3.91;40.23
80693;BME280;70055;39.436;-77.514;2023-11-19T08:28:59;99315.55;;;2.67;41.21
80693;BME280;70055;39.436;-77.514;2023-11-19T08:31:27;99317.89;;;2.54;42.60
80693;BME280;70055;39.436;-77.514;2023-11-19T08:33:55;99318.96;;;2.65;41.97
80693;BME280;70055;39.436;-77.514;2023-11-19T08:36:24;99323.49;;;2.72;42.48
80693;BME280;70055;39.436;-77.514;2023-11-19T08:38:52;99326.79;;;3.03;41.77
80693;BME280;70055;39.436;-77.514;2023-11-19T08:41:21;99327.45;;;3.87;40.62
80693;BME280;70055;39.436;-77.514;2023-11-19T08:43:50;99325.45;;;3.77;40.24
80693;BME280;70055;39.436;-77.514;2023-11-19T08:46:18;99324.99;;;2.87;41.96
80693;BME280;70055;39.436;-77.514;2023-11-19T08:48:46;99326.38;;;3.45;40.33
80693;BME280;70055;39.436;-77.514;2023-11-19T08:51:14;99322.10;;;4.00;40.26
80693;BME280;70055;39.436;-77.514;2023-11-19T08:53:42;99323.31;;;3.44;40.78
80693;BME280;70055;39.436;-77.514;2023-11-19T08:56:10;99323.24;;;2.79;42.05
80693;BME280;70055;39.436;-77.514;2023-11-19T08:58:38;99324.62;;;3.20;41.19
80693;BME280;70055;39.436;-77.514;2023-11-19T09:01:06;99322.03;;;3.02;41.11
80693;BME280;70055;39.436;-77.514;2023-11-19T09:03:33;99323.38;;;2.22;42.66
80693;BME280;70055;39.436;-77.514;2023-11-19T09:06:01;99316.98;;;2.92;41.92
80693;BME280;70055;39.436;-77.514;2023-11-19T09:08:29;99313.89;;;2.85;41.85
80693;BME280;70055;39.436;-77.514;2023-11-19T09:10:56;99316.59;;;2.17;42.89
80693;BME280;70055;39.436;-77.514;2023-11-19T09:13:24;99310.65;;;2.22;42.76
80693;BME280;70055;39.436;-77.514;2023-11-19T09:15:52;99307.95;;;2.53;42.27
80693;BME280;70055;39.436;-77.514;2023-11-19T09:18:20;99308.21;;;2.96;41.60
80693;BME280;70055;39.436;-77.514;2023-11-19T09:20:47;99303.67;;;3.31;41.44
80693;BME280;70055;39.436;-77.514;2023-11-19T09:23:15;99305.18;;;2.67;42.17
80693;BME280;70055;39.436;-77.514;2023-11-19T09:25:42;99306.04;;;2.62;42.18
80693;BME280;70055;39.436;-77.514;2023-11-19T09:28:10;99304.68;;;3.30;41.38
80693;BME280;70055;39.436;-77.514;2023-11-19T09:30:38;99309.27;;;3.89;40.79
80693;BME280;70055;39.436;-77.514;2023-11-19T09:33:06;99305.91;;;3.16;41.35
80693;BME280;70055;39.436;-77.514;2023-11-19T09:35:35;99307.89;;;3.29;41.54
80693;BME280;70055;39.436;-77.514;2023-11-19T09:38:03;99314.83;;;3.34;41.05
80693;BME280;70055;39.436;-77.514;2023-11-19T09:40:30;99319.55;;;3.31;41.26
80693;BME280;70055;39.436;-77.514;2023-11-19T09:42:59;99335.99;;;-1.77;47.96
80693;BME280;70055;39.436;-77.514;2023-11-19T09:45:28;99324.21;;;1.85;45.06
80693;BME280;70055;39.436;-77.514;2023-11-19T09:47:57;99324.93;;;2.06;43.44
80693;BME280;70055;39.436;-77.514;2023-11-19T09:50:27;99325.98;;;2.78;42.51
80693;BME280;70055;39.436;-77.514;2023-11-19T09:52:55;99328.17;;;0.92;45.23
80693;BME280;70055;39.436;-77.514;2023-11-19T09:55:23;99323.72;;;3.06;42.05
80693;BME280;70055;39.436;-77.514;2023-11-19T09:57:53;99327.44;;;2.75;43.18
80693;BME280;70055;39.436;-77.514;2023-11-19T10:00:22;99330.94;;;0.41;46.72
80693;BME280;70055;39.436;-77.514;2023-11-19T10:02:50;99324.36;;;3.26;42.52
80693;BME280;70055;39.436;-77.514;2023-11-19T10:05:20;99325.71;;;2.82;42.58
80693;BME280;70055;39.436;-77.514;2023-11-19T10:07:49;99326.81;;;3.21;41.60
80693;BME280;70055;39.436;-77.514;2023-11-19T10:10:18;99328.54;;;3.08;41.64
80693;BME280;70055;39.436;-77.514;2023-11-19T10:12:46;99327.90;;;3.18;41.43
80693;BME280;70055;39.436;-77.514;2023-11-19T10:15:20;99325.42;;;3.85;40.65
80693;BME280;70055;39.436;-77.514;2023-11-19T10:17:48;99327.53;;;3.83;40.37
80693;BME280;70055;39.436;-77.514;2023-11-19T10:20:16;99327.33;;;3.06;41.78
80693;BME280;70055;39.436;-77.514;2023-11-19T10:22:44;99326.86;;;3.59;40.56
80693;BME280;70055;39.436;-77.514;2023-11-19T10:25:29;99327.50;;;3.91;40.35
80693;BME280;70055;39.436;-77.514;2023-11-19T10:27:57;99331.70;;;3.85;40.44
80693;BME280;70055;39.436;-77.514;2023-11-19T10:30:26;99333.45;;;4.30;39.81
80693;BME280;70055;39.436;-77.514;2023-11-19T10:33:12;99335.64;;;3.80;39.75
80693;BME280;70055;39.436;-77.514;2023-11-19T10:35:52;99338.20;;;2.74;41.55
80693;BME280;70055;39.436;-77.514;2023-11-19T10:38:20;99344.38;;;2.30;43.04
80693;BME280;70055;39.436;-77.514;2023-11-19T10:40:48;99345.73;;;2.42;43.18
80693;BME280;70055;39.436;-77.514;2023-11-19T10:43:17;99343.61;;;2.37;43.11
80693;BME280;70055;39.436;-77.514;2023-11-19T10:45:45;99345.71;;;2.44;42.89
80693;BME280;70055;39.436;-77.514;2023-11-19T10:48:13;99338.59;;;3.00;41.83
80693;BME280;70055;39.436;-77.514;2023-11-19T10:50:42;99342.16;;;2.26;42.87
80693;BME280;70055;39.436;-77.514;2023-11-19T10:53:11;99342.98;;;2.42;42.87
80693;BME280;70055;39.436;-77.514;2023-11-19T10:55:40;99343.78;;;2.54;42.61
80693;BME280;70055;39.436;-77.514;2023-11-19T10:58:09;99336.12;;;3.34;41.03
80693;BME280;70055;39.436;-77.514;2023-11-19T11:00:39;99344.70;;;2.51;42.51
80693;BME280;70055;39.436;-77.514;2023-11-19T11:03:15;99342.35;;;2.49;42.14
80693;BME280;70055;39.436;-77.514;2023-11-19T11:05:43;99347.72;;;2.83;41.94
80693;BME280;70055;39.436;-77.514;2023-11-19T11:08:14;99349.98;;;3.69;40.76
80693;BME280;70055;39.436;-77.514;2023-11-19T11:10:45;99359.33;;;2.53;42.50
80693;BME280;70055;39.436;-77.514;2023-11-19T11:13:15;99358.55;;;3.75;40.31
80693;BME280;70055;39.436;-77.514;2023-11-19T11:15:44;99361.81;;;4.03;40.27
80693;BME280;70055;39.436;-77.514;2023-11-19T11:18:12;99360.67;;;3.61;40.86
80693;BME280;70055;39.436;-77.514;2023-11-19T11:20:41;99364.55;;;2.68;42.00
80693;BME280;70055;39.436;-77.514;2023-11-19T11:23:36;99361.32;;;3.66;40.85
80693;BME280;70055;39.436;-77.514;2023-11-19T11:26:20;99368.28;;;2.20;41.68
80693;BME280;70055;39.436;-77.514;2023-11-19T11:28:58;99372.48;;;1.77;44.09
80693;BME280;70055;39.436;-77.514;2023-11-19T11:31:39;99372.00;;;1.96;43.01
80693;BME280;70055;39.436;-77.514;2023-11-19T11:34:27;99374.16;;;2.49;42.49
80693;BME280;70055;39.436;-77.514;2023-11-19T11:37:10;99373.83;;;2.17;43.35
80693;BME280;70055;39.436;-77.514;2023-11-19T11:39:40;99378.26;;;2.40;43.62
80693;BME280;70055;39.436;-77.514;2023-11-19T11:42:40;99379.72;;;2.17;43.95
80693;BME280;70055;39.436;-77.514;2023-11-19T11:45:09;99377.82;;;1.95;43.73
80693;BME280;70055;39.436;-77.514;2023-11-19T11:48:25;99378.56;;;1.79;43.87
80693;BME280;70055;39.436;-77.514;2023-11-19T11:50:57;99379.21;;;1.97;43.64
80693;BME280;70055;39.436;-77.514;2023-11-19T11:53:26;99379.48;;;2.21;43.83
80693;BME280;70055;39.436;-77.514;2023-11-19T11:55:55;99382.82;;;2.17;43.58
80693;BME280;70055;39.436;-77.514;2023-11-19T11:58:28;99385.18;;;1.84;44.56
80693;BME280;70055;39.436;-77.514;2023-11-19T12:00:58;99390.89;;;1.79;44.68
80693;BME280;70055;39.436;-77.514;2023-11-19T12:03:28;99392.08;;;1.62;45.43
80693;BME280;70055;39.436;-77.514;2023-11-19T12:05:58;99392.18;;;1.60;44.50
80693;BME280;70055;39.436;-77.514;2023-11-19T12:08:28;99395.39;;;2.59;43.51
80693;BME280;70055;39.436;-77.514;2023-11-19T12:10:57;99400.59;;;2.96;43.23
80693;BME280;70055;39.436;-77.514;2023-11-19T12:13:42;99402.86;;;2.89;42.63
80693;BME280;70055;39.436;-77.514;2023-11-19T12:16:11;99409.26;;;3.11;42.11
80693;BME280;70055;39.436;-77.514;2023-11-19T12:18:40;99411.13;;;2.90;42.60
80693;BME280;70055;39.436;-77.514;2023-11-19T12:21:08;99412.09;;;3.01;42.05
80693;BME280;70055;39.436;-77.514;2023-11-19T12:23:45;99411.51;;;3.83;40.90
80693;BME280;70055;39.436;-77.514;2023-11-19T12:26:32;99411.45;;;4.31;40.15
80693;BME280;70055;39.436;-77.514;2023-11-19T12:29:00;99417.95;;;3.38;41.40
80693;BME280;70055;39.436;-77.514;2023-11-19T12:31:28;99420.24;;;3.48;41.50
80693;BME280;70055;39.436;-77.514;2023-11-19T12:33:56;99436.78;;;-0.23;47.94
80693;BME280;70055;39.436;-77.514;2023-11-19T12:36:24;99435.03;;;1.23;46.55
80693;BME280;70055;39.436;-77.514;2023-11-19T12:38:52;99436.75;;;2.21;44.25
80693;BME280;70055;39.436;-77.514;2023-11-19T12:41:20;99434.69;;;2.99;43.41
80693;BME280;70055;39.436;-77.514;2023-11-19T12:43:48;99434.16;;;2.49;43.90
80693;BME280;70055;39.436;-77.514;2023-11-19T12:46:18;99432.48;;;2.80;43.61
80693;BME280;70055;39.436;-77.514;2023-11-19T12:48:46;99428.60;;;3.74;42.19
80693;BME280;70055;39.436;-77.514;2023-11-19T12:51:15;99432.63;;;3.55;41.96
80693;BME280;70055;39.436;-77.514;2023-11-19T12:53:52;99441.26;;;2.83;43.79
80693;BME280;70055;39.436;-77.514;2023-11-19T12:56:20;99445.87;;;3.58;42.92
80693;BME280;70055;39.436;-77.514;2023-11-19T12:58:49;99453.77;;;2.65;44.02
80693;BME280;70055;39.436;-77.514;2023-11-19T13:01:18;99462.45;;;2.04;45.96